Sontag, MS (39665)

03:17 CDT le 28 juillet 2014 (GMT -0500)
Stronghope (KMSWESSO2) Alt. 269 ft | 31.72 °N, 90.24 °W | Change Station

Current weather conditions updated 27 seconds ago

Clear
Ciel dégagé
78.6 ° F
Paraît 82 ° F
N
0.0
Vent Variable Vent de OSO
Gusts 4.0 mph

Aujourd’hui il est prévu de faire pratiquement la même température qu’hier.

Aujourd'hui
Haut(e) -- | Bas -- ° F
--% Risque de précip.
Hier
Haut(e) -- | Bas -- ° F
Precip. -- pouce
6:14 AM 8:00 PM
Nouvelle lune, 2% visible
Pression 30.04 pouce
Visibilité 9.0 Miles terrestres
Nuages Ciel dégagé
indice de chaleur 82 ° F
Point de rosée 77 ° F
Humidité 95%
Précipitations 0.00 pouce
Profondeur de la couche neigeuse Non disponible.
UV 0 sur 12
Pollen 4.10 sur 12
Qualité de l'air Non disponible.
Flu Activity Non disponible.
METAR K1R7 280755Z AUTO 23006KT 9SM CLR 26/24 A3004 RMK AO2

More Conditions Fewer Conditions

Pression 30.04 pouce
Visibilité 9.0 Miles terrestres
Nuages Ciel dégagé
indice de chaleur 82 ° F
Point de rosée 77 ° F
Humidité 95%
Précipitations 0.00 pouce
Profondeur de la couche neigeuse Non disponible.
UV 0 sur 12
Pollen 4.10 sur 12
Qualité de l'air Non disponible.
Flu Activity Non disponible.
METAR K1R7 280755Z AUTO 23006KT 9SM CLR 26/24 A3004 RMK AO2

More Conditions Fewer Conditions

10-Day Weather Forecast

Almanac

Astronomie

Jul. 28, 2014 Lever Coucher
Temps réel 06:14 CDT 20:00 CDT
Crépuscule civil 05:47 CDT 20:26 CDT
Crépuscule nautique 05:15 CDT 20:58 CDT
Crépuscule astronomique 04:41 CDT 21:32 CDT
Lune 07:46 CDT 20:53 CDT
Durée de lumière visible 14h 39m
Longueur du jour
13h 45m
Tomorrow will be 1m 21s shorter.
Nouvelle lune, 2% of the Moon is Illuminated
Aujourd'hui
Nouvelle lune
août 3
Premier quartier
août 10
Pleine lune
août 17
Dernier quartier
août 25
Nouveau

Extrêmes aujourd'hui

State Highs State Lows

Community

WunderPhotos

Upload Photos

1,738,293 Photos téléchargées !

Nearby

Épaisseur de neige

Station Depth Altitude
Pas de nouvelles chutes de neige

Activité sismique

Ville Distance Mag. Time & Date
No recent earthquake activity has been reported nearby.
Minimum magnitude displayed is 2.5.

Températures des eaux côtières

Lieu Température
Aucun rapport de station

Stations météo à proximité

Emplacement de la station Température indice de chaleur Point de rosée Humidité Vent Precip. Alt. Mise à jour Type
Stronghope, Wesson, MS 78.6 ° F 82 ° F 77 ° F 95% OSO  à  0.0 mph 0.00 pouce / hr 269 ft 3:17 AM CDT Rapid Fire (temps réel)
East Lincoln County MS, Brookhaven, MS 77.5 ° F 79 ° F 73 ° F 87% NO  à  0.7 mph 0.00 pouce / hr 394 ft 3:17 AM CDT Rapid Fire (temps réel)
Downtown (Perkins Bldg), Brookhaven, MS 83.3 ° F 90 ° F 74 ° F 74% SO  à  10.1 mph 0.00 pouce / hr 473 ft 3:14 AM CDT Normal

Show More Stations Show Fewer Stations